CST,Max TemperatureF,Mean TemperatureF,Min TemperatureF,Max Dew PointF,MeanDew PointF,Min DewpointF,Max Humidity, Mean Humidity, Min Humidity, Max Sea Level PressureIn, Mean Sea Level PressureIn, Min Sea Level PressureIn, Max VisibilityMiles, Mean VisibilityMiles, Min VisibilityMiles, Max Wind SpeedMPH, Mean Wind SpeedMPH, Max Gust SpeedMPH,PrecipitationIn, CloudCover, Events, WindDirDegrees
2013-2-1,20,10,1,16,3,-5,89,72,56,30.51,30.34,30.16,10,8,1,25,17,28,0.00,4,Snow,257
2013-2-2,28,21,14,23,17,7,100,85,70,30.25,30.11,30.02,10,6,1,16,12,,0.00,7,Snow,257
2013-2-3,27,21,15,21,16,10,100,81,51,30.17,30.07,29.96,10,6,1,24,10,31,0.00,6,Snow,253
2013-2-4,37,29,20,28,23,17,93,79,65,30.05,29.93,29.83,10,10,7,20,13,,0.00,5,,314
2013-2-5,39,28,18,31,26,17,100,85,70,30.13,29.97,29.86,10,8,4,20,8,28,0.00,5,,262
2013-2-6,41,32,24,31,28,23,96,79,63,30.27,30.20,30.12,10,9,6,17,9,,0.00,1,,176
2013-2-7,39,36,32,40,34,29,100,94,83,30.10,29.98,29.86,9,4,1,21,12,,0.16,7,Rain,222
2013-2-8,31,28,24,30,24,21,96,86,81,30.44,30.31,30.05,10,10,8,23,17,30,0.00,8,,354
2013-2-9,34,30,27,31,26,23,89,82,75,30.43,30.30,30.10,10,10,10,18,11,23,0.00,5,,158
2013-2-10,48,41,34,48,40,30,100,94,68,30.10,29.74,29.56,10,6,1,33,22,45,0.47,7,Rain,175
2013-2-11,41,34,28,31,25,23,81,70,60,30.15,29.94,29.67,10,10,10,31,24,43,0.00,5,,270
2013-2-12,34,28,23,27,24,22,96,85,70,30.19,30.11,29.99,10,8,5,13,8,,0.00,3,,259
2013-2-13,45,34,22,32,28,22,100,80,56,29.98,29.86,29.79,10,8,4,15,8,22,0.00,0,,233
2013-2-14,39,36,32,32,30,27,96,79,68,30.05,29.91,29.76,10,10,8,26,13,33,0.00,6,,254
2013-2-15,33,27,20,31,20,11,93,70,40,30.27,30.17,30.01,10,10,7,18,12,21,0.00,4,,312
2013-2-16,27,20,13,13,9,5,81,65,46,30.27,30.23,30.17,10,10,10,17,13,22,0.00,2,Snow,323
2013-2-17,34,22,10,21,13,5,84,66,49,30.29,30.20,30.01,10,10,10,20,9,29,0.00,0,,155
2013-2-18,54,39,24,46,34,21,100,81,61,29.98,29.71,29.49,10,8,2,34,23,43,0.19,5,Rain-Snow,212
2013-2-19,24,20,14,18,10,5,79,69,59,30.31,30.04,29.80,10,9,2,33,27,44,0.00,6,Snow,282
2013-2-20,24,15,6,15,7,-1,91,74,51,30.46,30.36,30.23,10,10,9,16,13,,0.00,2,Snow,338
2013-2-21,28,20,12,27,21,10,100,92,75,30.42,30.10,29.86,10,5,1,29,15,39,0.01,7,Rain-Snow,93
2013-2-22,32,28,25,32,28,21,100,94,78,30.04,29.89,29.79,10,4,0,18,10,24,0.12,8,Fog-Rain-Snow,201
2013-2-23,26,22,19,21,18,16,93,80,69,30.06,30.03,29.97,10,10,8,13,10,20,0.00,5,,253
2013-2-24,36,26,15,27,21,13,92,80,62,30.19,30.15,30.07,10,9,5,8,6,,0.00,0,,195
2013-2-25,43,34,25,34,29,23,96,83,65,30.18,30.07,29.86,10,8,4,21,10,,0.00,0,,89
2013-2-26,33,32,30,32,31,28,100,95,81,29.84,29.56,29.43,9,3,0,33,19,41,0.77,8,Fog-Rain-Snow,47
2013-2-27,32,31,30,32,30,28,100,95,85,29.81,29.65,29.53,7,3,1,9,6,,0.05,8,Snow,301
2013-2-28,35,32,30,32,30,28,100,93,75,30.11,29.97,29.77,10,7,1,16,9,,0.01,8,Snow,332